Time;durP1;ratioP1;P1;durP2;ratioP2;P2;SDS_P1;SDS_P2;PMS_P1;PMS_P2;Temp;Humidity;BMP_temperature;BMP_pressure;BME280_temperature;BME280_humidity;BME280_pressure;Samples;Min_cycle;Max_cycle;Signal;HPM_P1;HPM_P2
2021/08/27 00:02:12;;;;;;;9.82;4.82;;;;;;;;;;4973749;28;20027;-72
2021/08/27 00:04:40;;;;;;;11.50;5.75;;;;;;;;;;4975169;28;20510;-75
2021/08/27 00:07:06;;;;;;;11.95;5.25;;;;;;;;;;4974591;28;20089;-78
2021/08/27 00:09:32;;;;;;;11.02;4.75;;;;;;;;;;4975440;28;20023;-74
2021/08/27 00:11:58;;;;;;;10.57;5.00;;;;;;;;;;4975646;28;20026;-74
2021/08/27 00:14:25;;;;;;;8.50;4.93;;;;;;;;;;4974601;28;20039;-71
2021/08/27 00:16:52;;;;;;;10.68;5.30;;;;;;;;;;4974975;28;20035;-77
2021/08/27 00:19:18;;;;;;;11.65;5.05;;;;;;;;;;4974945;28;20427;-72
2021/08/27 00:21:44;;;;;;;10.70;4.65;;;;;;;;;;4974526;28;20027;-73
2021/08/27 00:24:11;;;;;;;10.38;5.30;;;;;;;;;;4974543;28;20069;-75
2021/08/27 00:26:37;;;;;;;13.25;5.07;;;;;;;;;;4975254;28;20027;-74
2021/08/27 00:29:03;;;;;;;11.73;5.38;;;;;;;;;;4974407;28;20027;-76
2021/08/27 00:31:29;;;;;;;10.93;5.13;;;;;;;;;;4974979;28;20149;-73
2021/08/27 00:33:56;;;;;;;10.55;4.57;;;;;;;;;;4974014;28;20039;-76
2021/08/27 00:36:22;;;;;;;9.50;4.55;;;;;;;;;;4968608;28;20631;-76
2021/08/27 00:38:48;;;;;;;9.75;4.65;;;;;;;;;;4974820;28;20471;-73
2021/08/27 00:41:14;;;;;;;12.30;4.93;;;;;;;;;;4974127;28;20062;-71
2021/08/27 00:43:40;;;;;;;11.85;5.10;;;;;;;;;;4974558;28;20035;-75
2021/08/27 00:46:06;;;;;;;10.95;5.18;;;;;;;;;;4974334;28;20027;-72
2021/08/27 00:48:32;;;;;;;12.77;4.95;;;;;;;;;;4974799;28;20439;-72
2021/08/27 00:50:58;;;;;;;11.27;4.90;;;;;;;;;;4974291;28;20023;-74
2021/08/27 00:53:24;;;;;;;12.85;5.32;;;;;;;;;;4966499;28;20059;-74
2021/08/27 00:55:50;;;;;;;8.30;4.30;;;;;;;;;;4955026;29;20023;-72
2021/08/27 00:58:16;;;;;;;13.98;5.03;;;;;;;;;;4953753;28;20037;-74
2021/08/27 01:00:45;;;;;;;9.68;4.60;;;;;;;;;;4959667;28;20084;-77
2021/08/27 01:03:13;;;;;;;13.10;5.70;;;;;;;;;;4974140;28;20063;-73
2021/08/27 01:05:42;;;;;;;9.05;4.82;;;;;;;;;;4973773;28;20031;-78
2021/08/27 01:08:16;;;;;;;7.68;4.53;;;;;;;;;;4974065;28;20031;-76
2021/08/27 01:10:45;;;;;;;11.40;4.88;;;;;;;;;;4973701;28;20026;-75
2021/08/27 01:13:41;;;;;;;10.25;4.30;;;;;;;;;;4973224;28;20049;-72
2021/08/27 01:16:10;;;;;;;11.53;4.43;;;;;;;;;;4957301;28;20049;-73
2021/08/27 01:18:45;;;;;;;7.72;4.97;;;;;;;;;;4972888;28;20309;-77
2021/08/27 01:21:14;;;;;;;11.90;4.85;;;;;;;;;;4973004;28;20109;-75
2021/08/27 01:23:40;;;;;;;9.93;5.00;;;;;;;;;;4964219;28;20026;-83
2021/08/27 01:26:07;;;;;;;10.35;4.57;;;;;;;;;;4954522;29;20035;-81
2021/08/27 01:28:35;;;;;;;9.25;4.28;;;;;;;;;;4956241;28;20082;-76
2021/08/27 01:31:20;;;;;;;10.75;4.32;;;;;;;;;;4972924;28;20035;-82
2021/08/27 01:33:57;;;;;;;10.02;4.50;;;;;;;;;;4971445;28;20041;-82
2021/08/27 01:36:24;;;;;;;9.48;4.35;;;;;;;;;;4960335;28;20106;-75
2021/08/27 01:38:51;;;;;;;10.50;4.55;;;;;;;;;;4973393;28;20403;-76
2021/08/27 01:41:18;;;;;;;12.00;5.10;;;;;;;;;;4973019;28;20506;-83
2021/08/27 01:43:44;;;;;;;11.68;4.97;;;;;;;;;;4973685;28;20450;-77
2021/08/27 01:46:10;;;;;;;8.65;4.22;;;;;;;;;;4973041;28;20063;-78
2021/08/27 01:48:38;;;;;;;10.27;4.50;;;;;;;;;;4973454;28;20035;-80
2021/08/27 01:51:06;;;;;;;8.63;4.93;;;;;;;;;;4970719;28;20395;-72
2021/08/27 01:53:32;;;;;;;9.65;3.80;;;;;;;;;;4971953;28;20073;-73
2021/08/27 01:55:59;;;;;;;10.23;4.60;;;;;;;;;;4972282;28;20057;-79
2021/08/27 01:58:29;;;;;;;7.25;4.10;;;;;;;;;;4973125;28;20027;-76
2021/08/27 02:00:56;;;;;;;8.80;3.95;;;;;;;;;;4972914;28;20034;-80
2021/08/27 02:03:22;;;;;;;9.82;4.30;;;;;;;;;;4971363;28;20540;-82
2021/08/27 02:05:48;;;;;;;7.55;4.30;;;;;;;;;;4972959;28;20035;-79
2021/08/27 02:08:16;;;;;;;7.75;4.38;;;;;;;;;;4972371;28;20027;-80
2021/08/27 02:10:43;;;;;;;7.57;3.75;;;;;;;;;;4972646;28;20063;-80
2021/08/27 02:13:09;;;;;;;9.50;4.05;;;;;;;;;;4972752;28;20034;-78
2021/08/27 02:15:35;;;;;;;9.93;4.32;;;;;;;;;;4972466;28;20058;-75
2021/08/27 02:18:01;;;;;;;10.02;4.30;;;;;;;;;;4972881;28;20030;-77
2021/08/27 02:20:27;;;;;;;9.55;4.57;;;;;;;;;;4972743;28;20553;-75
2021/08/27 02:22:54;;;;;;;8.63;4.05;;;;;;;;;;4972219;28;20558;-73
2021/08/27 02:25:21;;;;;;;11.32;4.57;;;;;;;;;;4971236;28;20035;-76
2021/08/27 02:27:48;;;;;;;8.27;4.53;;;;;;;;;;4971606;28;20121;-76
2021/08/27 02:30:16;;;;;;;10.20;4.30;;;;;;;;;;4971857;28;20031;-79
2021/08/27 02:32:43;;;;;;;9.32;4.47;;;;;;;;;;4953480;29;20038;-78
2021/08/27 02:35:10;;;;;;;10.15;4.55;;;;;;;;;;4962190;28;20090;-74
2021/08/27 02:37:37;;;;;;;8.98;4.40;;;;;;;;;;4971614;28;20030;-76
2021/08/27 02:40:04;;;;;;;6.32;3.22;;;;;;;;;;4972545;28;20027;-72
2021/08/27 02:42:31;;;;;;;8.02;3.58;;;;;;;;;;4972877;28;20038;-75
2021/08/27 02:44:58;;;;;;;7.28;3.75;;;;;;;;;;4972543;28;20026;-77
2021/08/27 02:47:24;;;;;;;8.68;3.80;;;;;;;;;;4972439;28;20114;-73
2021/08/27 02:49:50;;;;;;;7.65;3.92;;;;;;;;;;4972341;28;20027;-77
2021/08/27 02:52:25;;;;;;;7.85;3.60;;;;;;;;;;4971237;28;20043;-71
2021/08/27 02:54:55;;;;;;;7.63;3.30;;;;;;;;;;4972540;28;20027;-75
2021/08/27 02:57:22;;;;;;;5.57;3.17;;;;;;;;;;4964532;28;20035;-74
2021/08/27 02:59:49;;;;;;;8.45;4.10;;;;;;;;;;4951933;29;20035;-76
2021/08/27 03:02:16;;;;;;;8.40;4.30;;;;;;;;;;4971173;28;20403;-75
2021/08/27 03:05:01;;;;;;;8.45;3.60;;;;;;;;;;4972389;28;20026;-72
2021/08/27 03:07:29;;;;;;;8.05;4.20;;;;;;;;;;4970208;28;20507;-72
2021/08/27 03:10:00;;;;;;;6.90;3.53;;;;;;;;;;4971901;28;20085;-76
2021/08/27 03:12:32;;;;;;;7.75;3.90;;;;;;;;;;4972020;28;20027;-72
2021/08/27 03:14:59;;;;;;;9.00;3.92;;;;;;;;;;4972020;28;20043;-76
2021/08/27 03:17:27;;;;;;;7.57;3.67;;;;;;;;;;4971649;28;20499;-73
2021/08/27 03:20:02;;;;;;;7.57;3.88;;;;;;;;;;4971975;28;20118;-75
2021/08/27 03:22:31;;;;;;;10.80;4.05;;;;;;;;;;4975381;28;20395;-78
2021/08/27 03:25:00;;;;;;;7.15;3.58;;;;;;;;;;4976160;28;20054;-78
2021/08/27 03:27:28;;;;;;;4.85;3.38;;;;;;;;;;4975796;28;20027;-78
2021/08/27 03:29:57;;;;;;;5.65;3.00;;;;;;;;;;4975007;28;20097;-76
2021/08/27 03:32:23;;;;;;;5.57;3.42;;;;;;;;;;4975558;28;20058;-75
2021/08/27 03:34:50;;;;;;;6.80;3.05;;;;;;;;;;4974973;28;20521;-78
2021/08/27 03:37:16;;;;;;;5.85;2.88;;;;;;;;;;4973654;28;20436;-77
2021/08/27 03:39:42;;;;;;;7.57;3.60;;;;;;;;;;4975578;28;20479;-72
2021/08/27 03:42:09;;;;;;;6.90;3.25;;;;;;;;;;4975222;28;20122;-74
2021/08/27 03:44:35;;;;;;;6.47;3.30;;;;;;;;;;4975615;28;20085;-74
2021/08/27 03:47:02;;;;;;;5.60;2.92;;;;;;;;;;4974455;28;20026;-80
2021/08/27 03:49:29;;;;;;;7.20;3.65;;;;;;;;;;4975665;28;20039;-79
2021/08/27 03:51:56;;;;;;;9.50;3.35;;;;;;;;;;4975171;28;20065;-76
2021/08/27 03:54:22;;;;;;;6.18;2.65;;;;;;;;;;4975270;28;20039;-76
2021/08/27 03:56:48;;;;;;;6.68;2.92;;;;;;;;;;4975773;28;20079;-75
2021/08/27 03:59:16;;;;;;;5.32;2.75;;;;;;;;;;4975319;28;20027;-75
2021/08/27 04:01:42;;;;;;;7.50;3.30;;;;;;;;;;4974739;28;20023;-73
2021/08/27 04:04:08;;;;;;;5.10;2.72;;;;;;;;;;4974970;28;20030;-75
2021/08/27 04:06:35;;;;;;;5.55;2.80;;;;;;;;;;4974556;28;20061;-78
2021/08/27 04:09:01;;;;;;;4.55;2.35;;;;;;;;;;4974762;28;20023;-70
2021/08/27 04:11:27;;;;;;;7.28;2.72;;;;;;;;;;4974968;28;20414;-75
2021/08/27 04:13:53;;;;;;;4.70;2.80;;;;;;;;;;4975317;28;20038;-78
2021/08/27 04:16:19;;;;;;;6.55;3.22;;;;;;;;;;4974200;28;20027;-75
2021/08/27 04:18:45;;;;;;;5.00;2.47;;;;;;;;;;4974332;28;20026;-72
2021/08/27 04:21:11;;;;;;;5.07;2.63;;;;;;;;;;4974606;28;20142;-77
2021/08/27 04:23:37;;;;;;;5.22;2.63;;;;;;;;;;4974847;28;20403;-80
2021/08/27 04:26:03;;;;;;;5.72;3.10;;;;;;;;;;4974722;28;20027;-73
2021/08/27 04:28:29;;;;;;;6.38;2.83;;;;;;;;;;4973636;28;20376;-72
2021/08/27 04:30:55;;;;;;;7.85;3.17;;;;;;;;;;4974865;28;20395;-71
2021/08/27 04:33:21;;;;;;;6.07;2.80;;;;;;;;;;4974379;28;20110;-79
2021/08/27 04:35:47;;;;;;;4.10;2.47;;;;;;;;;;4973209;28;20451;-72
2021/08/27 04:38:13;;;;;;;5.38;2.70;;;;;;;;;;4973732;28;20102;-75
2021/08/27 04:40:39;;;;;;;4.20;2.60;;;;;;;;;;4973204;28;20034;-79
2021/08/27 04:43:05;;;;;;;4.93;2.72;;;;;;;;;;4974446;28;20105;-74
2021/08/27 04:45:31;;;;;;;4.70;2.38;;;;;;;;;;4974416;28;20399;-74
2021/08/27 04:47:57;;;;;;;4.93;2.55;;;;;;;;;;4974663;28;20038;-73
2021/08/27 04:50:23;;;;;;;6.55;2.78;;;;;;;;;;4973921;28;20031;-80
2021/08/27 04:52:50;;;;;;;4.65;2.58;;;;;;;;;;4972155;28;20035;-75
2021/08/27 04:55:16;;;;;;;4.93;2.60;;;;;;;;;;4954867;29;20042;-74
2021/08/27 04:57:42;;;;;;;4.55;2.25;;;;;;;;;;4955256;29;20380;-77
2021/08/27 05:00:09;;;;;;;6.18;3.03;;;;;;;;;;4969968;28;20498;-75
2021/08/27 05:02:36;;;;;;;4.50;2.65;;;;;;;;;;4974422;28;20194;-73
2021/08/27 05:05:02;;;;;;;4.32;2.20;;;;;;;;;;4972848;28;20042;-72
2021/08/27 05:07:28;;;;;;;4.78;2.55;;;;;;;;;;4973976;28;20479;-73
2021/08/27 05:09:54;;;;;;;4.47;2.38;;;;;;;;;;4973602;28;20035;-82
2021/08/27 05:12:20;;;;;;;5.75;2.53;;;;;;;;;;4973815;28;20517;-75
2021/08/27 05:14:46;;;;;;;5.72;2.72;;;;;;;;;;4973787;28;20042;-72
2021/08/27 05:17:12;;;;;;;5.50;2.58;;;;;;;;;;4974031;28;20125;-74
2021/08/27 05:19:38;;;;;;;5.60;2.20;;;;;;;;;;4973804;28;20031;-71
2021/08/27 05:22:04;;;;;;;3.63;1.92;;;;;;;;;;4973542;28;20027;-78
2021/08/27 05:24:30;;;;;;;4.05;2.00;;;;;;;;;;4959209;28;20038;-78
2021/08/27 05:26:57;;;;;;;6.22;2.20;;;;;;;;;;4954650;29;20444;-72
2021/08/27 05:29:23;;;;;;;4.10;1.92;;;;;;;;;;4961149;28;20042;-76
2021/08/27 05:31:49;;;;;;;5.45;2.30;;;;;;;;;;4972114;28;20034;-74
2021/08/27 05:34:15;;;;;;;3.53;1.83;;;;;;;;;;4971615;28;20517;-73
2021/08/27 05:36:41;;;;;;;3.78;2.05;;;;;;;;;;4972647;28;20038;-73
2021/08/27 05:39:07;;;;;;;4.28;2.30;;;;;;;;;;4972347;28;20038;-71
2021/08/27 05:41:34;;;;;;;6.00;2.20;;;;;;;;;;4973165;28;20035;-73
2021/08/27 05:44:00;;;;;;;4.03;2.20;;;;;;;;;;4971737;28;21284;-71
2021/08/27 05:46:26;;;;;;;5.45;2.35;;;;;;;;;;4971819;28;20369;-74
2021/08/27 05:48:52;;;;;;;4.45;1.90;;;;;;;;;;4973440;28;20496;-75
2021/08/27 05:51:18;;;;;;;3.80;1.73;;;;;;;;;;4972300;28;20027;-73
2021/08/27 05:53:44;;;;;;;5.13;2.10;;;;;;;;;;4964418;28;20081;-72
2021/08/27 05:56:11;;;;;;;3.97;2.10;;;;;;;;;;4953758;29;20058;-71
2021/08/27 05:58:38;;;;;;;5.45;2.15;;;;;;;;;;4954061;29;20027;-72
2021/08/27 06:01:04;;;;;;;3.75;1.63;;;;;;;;;;4971990;28;20038;-71
2021/08/27 06:03:30;;;;;;;4.50;1.80;;;;;;;;;;4972114;28;20061;-77
2021/08/27 06:05:57;;;;;;;4.93;2.17;;;;;;;;;;4971728;28;20073;-76
2021/08/27 06:08:23;;;;;;;4.70;2.40;;;;;;;;;;4972535;28;20093;-77
2021/08/27 06:10:49;;;;;;;5.22;2.30;;;;;;;;;;4972473;28;20426;-79
2021/08/27 06:13:15;;;;;;;3.97;1.80;;;;;;;;;;4972693;28;20041;-81
2021/08/27 06:15:43;;;;;;;5.45;2.13;;;;;;;;;;4974116;28;20030;-72
2021/08/27 06:18:10;;;;;;;3.63;1.98;;;;;;;;;;4972999;28;20022;-78
2021/08/27 06:20:36;;;;;;;6.22;2.33;;;;;;;;;;4972655;28;20026;-72
2021/08/27 06:23:02;;;;;;;11.65;3.92;;;;;;;;;;4969217;28;20020;-72
2021/08/27 06:25:28;;;;;;;12.05;4.95;;;;;;;;;;4953988;29;20039;-74
2021/08/27 06:27:54;;;;;;;15.82;4.18;;;;;;;;;;4953558;29;20051;-81
2021/08/27 06:30:20;;;;;;;10.27;4.75;;;;;;;;;;4961646;28;20030;-75
2021/08/27 06:32:46;;;;;;;9.07;4.00;;;;;;;;;;4972742;28;20491;-79
2021/08/27 06:35:12;;;;;;;7.75;4.00;;;;;;;;;;4971989;28;20041;-72
2021/08/27 06:40:26;;;;;;;11.65;3.95;;;;;;;;;;4971810;28;20419;-72
2021/08/27 06:42:52;;;;;;;10.30;4.00;;;;;;;;;;4971167;28;20043;-74
2021/08/27 06:45:18;;;;;;;8.70;3.55;;;;;;;;;;4971990;28;20034;-71
2021/08/27 06:47:44;;;;;;;14.25;3.60;;;;;;;;;;4971105;28;20042;-72
2021/08/27 06:50:10;;;;;;;8.82;3.25;;;;;;;;;;4960790;28;20028;-74
2021/08/27 06:52:36;;;;;;;9.15;2.80;;;;;;;;;;4971954;28;20034;-84
2021/08/27 06:55:02;;;;;;;7.90;2.95;;;;;;;;;;4971876;28;20037;-70
2021/08/27 06:57:28;;;;;;;10.05;3.00;;;;;;;;;;4972721;28;20031;-75
2021/08/27 06:59:54;;;;;;;10.18;3.17;;;;;;;;;;4972537;28;20394;-73
2021/08/27 07:02:20;;;;;;;8.88;3.30;;;;;;;;;;4971542;28;20031;-77
2021/08/27 07:04:46;;;;;;;9.27;2.75;;;;;;;;;;4971609;28;20038;-73
2021/08/27 07:07:12;;;;;;;7.53;2.55;;;;;;;;;;4970445;28;20030;-73
2021/08/27 07:09:39;;;;;;;7.85;2.80;;;;;;;;;;4970856;28;20505;-73
2021/08/27 07:12:05;;;;;;;6.32;2.08;;;;;;;;;;4972005;28;20022;-73
2021/08/27 07:14:32;;;;;;;4.88;2.25;;;;;;;;;;4972557;28;20031;-72
2021/08/27 07:16:59;;;;;;;8.13;2.20;;;;;;;;;;4972681;28;20050;-72
2021/08/27 07:19:25;;;;;;;8.13;2.10;;;;;;;;;;4972025;28;20034;-74
2021/08/27 07:21:51;;;;;;;4.25;1.73;;;;;;;;;;4972184;28;20034;-75
2021/08/27 07:24:17;;;;;;;7.53;2.25;;;;;;;;;;4972153;28;20038;-74
2021/08/27 07:26:43;;;;;;;6.63;2.10;;;;;;;;;;4972258;28;20027;-72
2021/08/27 07:29:09;;;;;;;9.07;3.00;;;;;;;;;;4972001;28;20495;-72
2021/08/27 07:31:35;;;;;;;7.50;2.40;;;;;;;;;;4972201;28;20073;-72
2021/08/27 07:34:01;;;;;;;3.92;1.55;;;;;;;;;;4972327;28;20043;-73
2021/08/27 07:36:27;;;;;;;5.22;1.48;;;;;;;;;;4972017;28;20450;-72
2021/08/27 07:38:53;;;;;;;7.78;2.08;;;;;;;;;;4954630;28;20039;-75
2021/08/27 07:41:19;;;;;;;8.98;2.00;;;;;;;;;;4971758;28;20550;-73
2021/08/27 07:43:45;;;;;;;5.57;2.10;;;;;;;;;;4972000;28;20447;-75
2021/08/27 07:46:11;;;;;;;7.80;2.30;;;;;;;;;;4954501;28;20027;-72
2021/08/27 07:48:41;;;;;;;5.47;1.90;;;;;;;;;;4971834;28;20495;-76
2021/08/27 07:51:07;;;;;;;7.07;2.15;;;;;;;;;;4971736;28;20380;-72
2021/08/27 07:53:33;;;;;;;5.32;1.80;;;;;;;;;;4954575;28;20085;-76
2021/08/27 07:55:59;;;;;;;6.22;2.05;;;;;;;;;;4972259;28;20030;-73
2021/08/27 07:58:25;;;;;;;5.07;1.70;;;;;;;;;;4971647;28;20037;-72
2021/08/27 08:00:51;;;;;;;4.20;1.55;;;;;;;;;;4954537;28;20391;-73
2021/08/27 08:03:17;;;;;;;4.93;1.90;;;;;;;;;;4971688;28;20038;-73
2021/08/27 08:05:43;;;;;;;3.88;1.70;;;;;;;;;;4971821;28;20034;-72
2021/08/27 08:08:09;;;;;;;5.93;2.13;;;;;;;;;;4974059;28;20038;-76
2021/08/27 08:10:35;;;;;;;4.00;1.52;;;;;;;;;;4975326;28;20458;-72
2021/08/27 08:13:02;;;;;;;13.38;2.25;;;;;;;;;;4975632;28;20038;-72
2021/08/27 08:15:28;;;;;;;4.90;1.80;;;;;;;;;;4975568;28;20073;-71
2021/08/27 08:17:54;;;;;;;3.67;1.42;;;;;;;;;;4975263;28;20026;-74
2021/08/27 08:20:21;;;;;;;5.57;1.70;;;;;;;;;;4974985;28;20018;-72
2021/08/27 08:22:47;;;;;;;4.82;2.17;;;;;;;;;;4975172;28;20113;-72
2021/08/27 08:25:13;;;;;;;6.40;2.10;;;;;;;;;;4974918;28;20038;-79
2021/08/27 08:27:39;;;;;;;4.25;1.60;;;;;;;;;;4975012;28;20023;-74
2021/08/27 08:30:05;;;;;;;6.05;2.10;;;;;;;;;;4974770;28;20027;-72
2021/08/27 08:32:31;;;;;;;7.82;1.70;;;;;;;;;;4975238;28;20110;-76
2021/08/27 08:34:57;;;;;;;6.15;1.63;;;;;;;;;;4975224;28;20034;-83
2021/08/27 08:37:23;;;;;;;5.82;1.70;;;;;;;;;;4974662;28;20083;-82
2021/08/27 08:39:49;;;;;;;3.65;1.60;;;;;;;;;;4974808;28;20027;-83
2021/08/27 08:42:15;;;;;;;5.03;1.83;;;;;;;;;;4974519;28;20043;-83
2021/08/27 08:44:41;;;;;;;3.33;1.60;;;;;;;;;;4974760;28;20498;-83
2021/08/27 08:47:08;;;;;;;4.40;1.55;;;;;;;;;;4957087;28;20034;-80
2021/08/27 08:49:35;;;;;;;5.00;1.73;;;;;;;;;;4957243;28;20027;-83
2021/08/27 08:52:01;;;;;;;4.63;1.65;;;;;;;;;;4974881;28;20031;-83
2021/08/27 08:54:28;;;;;;;4.97;1.75;;;;;;;;;;4957334;28;20038;-83
2021/08/27 08:56:54;;;;;;;3.78;1.40;;;;;;;;;;4974562;28;20061;-79
2021/08/27 08:59:20;;;;;;;3.75;1.35;;;;;;;;;;4974356;28;20027;-82
2021/08/27 09:01:46;;;;;;;5.35;1.60;;;;;;;;;;4974482;28;20030;-79
2021/08/27 09:04:12;;;;;;;4.10;1.50;;;;;;;;;;4974125;28;20117;-81
2021/08/27 09:06:38;;;;;;;4.03;1.75;;;;;;;;;;4974348;28;20025;-76
2021/08/27 09:09:04;;;;;;;4.88;1.80;;;;;;;;;;4974140;28;20031;-82
2021/08/27 09:11:31;;;;;;;4.80;1.73;;;;;;;;;;4974626;28;20022;-83
2021/08/27 09:13:58;;;;;;;4.32;1.33;;;;;;;;;;4974256;28;20051;-81
2021/08/27 09:16:25;;;;;;;4.30;1.10;;;;;;;;;;4973860;28;20376;-83
2021/08/27 09:18:51;;;;;;;5.53;1.63;;;;;;;;;;4973093;28;20038;-82
2021/08/27 09:21:27;;;;;;;3.40;1.45;;;;;;;;;;4973887;28;20023;-83
2021/08/27 09:24:29;;;;;;;4.35;1.83;;;;;;;;;;4974040;28;20029;-82
2021/08/27 09:26:56;;;;;;;6.28;1.67;;;;;;;;;;4914552;29;20034;-80
2021/08/27 09:29:35;;;;;;;4.07;1.60;;;;;;;;;;4962435;28;20279;-72
2021/08/27 09:32:02;;;;;;;6.43;2.13;;;;;;;;;;4974210;28;20089;-81
2021/08/27 09:34:29;;;;;;;4.18;1.70;;;;;;;;;;4974149;28;20035;-79
2021/08/27 09:36:59;;;;;;;3.97;1.50;;;;;;;;;;4973793;28;20033;-81
2021/08/27 09:39:32;;;;;;;5.65;1.80;;;;;;;;;;4956036;28;20027;-82
2021/08/27 09:41:58;;;;;;;4.57;1.65;;;;;;;;;;4973899;28;20114;-76
2021/08/27 09:44:24;;;;;;;4.00;1.67;;;;;;;;;;4973417;28;20030;-83
2021/08/27 09:46:50;;;;;;;5.95;1.98;;;;;;;;;;4973589;28;20055;-83
2021/08/27 09:49:32;;;;;;;6.03;1.63;;;;;;;;;;4973216;28;20071;-83
2021/08/27 09:51:59;;;;;;;4.60;2.03;;;;;;;;;;4973818;28;20026;-82
2021/08/27 09:54:33;;;;;;;4.65;1.75;;;;;;;;;;4973114;28;20561;-83
2021/08/27 09:56:59;;;;;;;4.40;1.80;;;;;;;;;;4973761;28;20045;-80
2021/08/27 09:59:38;;;;;;;7.03;2.08;;;;;;;;;;4973161;28;20030;-82
2021/08/27 10:02:06;;;;;;;3.40;1.63;;;;;;;;;;4973108;28;20019;-80
2021/08/27 10:04:32;;;;;;;3.47;1.75;;;;;;;;;;4973362;28;20030;-71
2021/08/27 10:06:59;;;;;;;3.80;1.60;;;;;;;;;;4973566;28;20023;-81
2021/08/27 10:09:42;;;;;;;5.72;1.80;;;;;;;;;;4972922;28;20090;-79
2021/08/27 10:12:09;;;;;;;9.00;2.03;;;;;;;;;;4973036;28;20027;-79
2021/08/27 10:14:35;;;;;;;4.28;1.98;;;;;;;;;;4955637;28;20042;-80
2021/08/27 10:17:03;;;;;;;4.05;1.60;;;;;;;;;;4973284;28;20471;-82
2021/08/27 10:19:29;;;;;;;5.13;2.10;;;;;;;;;;4973262;28;20034;-77
2021/08/27 10:21:55;;;;;;;5.00;1.90;;;;;;;;;;4972919;28;20022;-80
2021/08/27 10:24:21;;;;;;;5.65;1.98;;;;;;;;;;4972696;28;20019;-79
2021/08/27 10:26:47;;;;;;;5.65;1.98;;;;;;;;;;4972867;28;20035;-76
2021/08/27 10:29:13;;;;;;;4.25;1.55;;;;;;;;;;4972682;28;20025;-78
2021/08/27 10:31:44;;;;;;;4.55;1.58;;;;;;;;;;4972544;28;20405;-76
2021/08/27 10:34:10;;;;;;;5.43;1.60;;;;;;;;;;4972453;28;20045;-76
2021/08/27 10:36:36;;;;;;;5.90;2.05;;;;;;;;;;4972829;28;20031;-73
2021/08/27 10:39:03;;;;;;;3.67;2.10;;;;;;;;;;4955157;28;20391;-71
2021/08/27 10:41:36;;;;;;;4.93;1.90;;;;;;;;;;4972940;28;20035;-72
2021/08/27 10:44:09;;;;;;;3.20;1.25;;;;;;;;;;4972441;28;20479;-79
2021/08/27 10:46:44;;;;;;;3.17;1.45;;;;;;;;;;4972701;28;20026;-78
2021/08/27 10:49:11;;;;;;;6.10;1.98;;;;;;;;;;4972394;28;20492;-79
2021/08/27 10:51:37;;;;;;;4.13;1.60;;;;;;;;;;4972444;28;20502;-79
2021/08/27 10:54:04;;;;;;;5.50;2.22;;;;;;;;;;4972269;28;20086;-79
2021/08/27 10:56:49;;;;;;;4.13;1.95;;;;;;;;;;4955332;28;20027;-82
2021/08/27 10:59:15;;;;;;;4.70;2.30;;;;;;;;;;4972259;28;20023;-76
2021/08/27 11:01:46;;;;;;;4.07;1.63;;;;;;;;;;4972467;28;20022;-79
2021/08/27 11:04:16;;;;;;;5.35;2.28;;;;;;;;;;4972251;28;20027;-75
2021/08/27 11:06:56;;;;;;;6.10;2.20;;;;;;;;;;4972437;28;20023;-79
2021/08/27 11:09:22;;;;;;;5.05;1.80;;;;;;;;;;4972184;28;20316;-77
2021/08/27 11:11:48;;;;;;;6.13;2.30;;;;;;;;;;4972371;28;20034;-79
2021/08/27 11:14:21;;;;;;;3.70;1.58;;;;;;;;;;4954724;28;20063;-82
2021/08/27 11:16:57;;;;;;;4.55;1.70;;;;;;;;;;4972335;28;20065;-71
2021/08/27 11:19:25;;;;;;;4.57;1.75;;;;;;;;;;4971915;28;20062;-80
2021/08/27 11:21:55;;;;;;;3.20;1.30;;;;;;;;;;4972251;28;20031;-81
2021/08/27 11:24:23;;;;;;;4.78;1.60;;;;;;;;;;4954537;28;20888;-81
2021/08/27 11:26:59;;;;;;;5.65;1.95;;;;;;;;;;4972212;28;20430;-73
2021/08/27 11:29:32;;;;;;;3.80;1.70;;;;;;;;;;4971996;28;20027;-76
2021/08/27 11:32:03;;;;;;;6.63;2.08;;;;;;;;;;4972455;28;20090;-78
2021/08/27 11:34:49;;;;;;;3.30;1.45;;;;;;;;;;4972391;28;20035;-71
2021/08/27 11:37:15;;;;;;;4.47;1.70;;;;;;;;;;4972047;28;20031;-75
2021/08/27 11:39:41;;;;;;;4.63;1.80;;;;;;;;;;4972107;28;20031;-71
2021/08/27 11:42:07;;;;;;;4.88;2.03;;;;;;;;;;4955453;28;20041;-80
2021/08/27 11:44:41;;;;;;;3.60;1.58;;;;;;;;;;4975763;28;20027;-77
2021/08/27 11:47:09;;;;;;;4.30;1.73;;;;;;;;;;4975659;28;20109;-71
2021/08/27 11:49:38;;;;;;;4.88;2.03;;;;;;;;;;4975766;28;20023;-72
2021/08/27 11:52:15;;;;;;;3.45;2.15;;;;;;;;;;4975567;28;20022;-73
2021/08/27 11:54:41;;;;;;;4.57;1.77;;;;;;;;;;4975588;28;20038;-75
2021/08/27 11:57:14;;;;;;;3.42;1.63;;;;;;;;;;4975479;28;20022;-76
2021/08/27 11:59:42;;;;;;;3.83;1.48;;;;;;;;;;4975782;28;20034;-77
2021/08/27 12:02:15;;;;;;;5.15;1.90;;;;;;;;;;4957888;28;20033;-71
2021/08/27 12:04:41;;;;;;;6.38;2.13;;;;;;;;;;4975574;28;20027;-72
2021/08/27 12:07:09;;;;;;;3.97;1.73;;;;;;;;;;4957878;28;20027;-71
2021/08/27 12:09:35;;;;;;;2.50;1.38;;;;;;;;;;4975377;28;20084;-77
2021/08/27 12:12:01;;;;;;;4.38;1.88;;;;;;;;;;4975537;28;20035;-81
2021/08/27 12:14:46;;;;;;;3.50;1.55;;;;;;;;;;4975554;28;20043;-79
2021/08/27 12:17:16;;;;;;;4.32;1.60;;;;;;;;;;4975065;28;20019;-76
2021/08/27 12:19:43;;;;;;;4.45;1.70;;;;;;;;;;4975339;28;20023;-78
2021/08/27 12:22:11;;;;;;;4.45;1.85;;;;;;;;;;4957556;28;20027;-79
2021/08/27 12:24:38;;;;;;;5.15;1.30;;;;;;;;;;4975100;28;20030;-78
2021/08/27 12:27:04;;;;;;;2.92;1.40;;;;;;;;;;4974953;28;20030;-78
2021/08/27 12:29:30;;;;;;;3.72;1.90;;;;;;;;;;4975391;28;20117;-78
2021/08/27 12:31:56;;;;;;;4.38;1.50;;;;;;;;;;4957682;28;20118;-73
2021/08/27 12:34:23;;;;;;;3.13;1.52;;;;;;;;;;4957238;28;20043;-76
2021/08/27 12:36:49;;;;;;;3.20;1.55;;;;;;;;;;4974883;28;20383;-78
2021/08/27 12:39:16;;;;;;;3.47;1.58;;;;;;;;;;4974755;28;20034;-79
2021/08/27 12:41:42;;;;;;;5.07;1.58;;;;;;;;;;4957260;28;20517;-72
2021/08/27 12:44:09;;;;;;;3.88;1.48;;;;;;;;;;4974555;28;20053;-79
2021/08/27 12:46:35;;;;;;;4.03;1.52;;;;;;;;;;4974833;28;20543;-72
2021/08/27 12:49:13;;;;;;;3.97;1.52;;;;;;;;;;4974915;28;20484;-73
2021/08/27 12:51:41;;;;;;;4.43;1.55;;;;;;;;;;4974717;28;20059;-73
2021/08/27 12:54:07;;;;;;;3.10;1.30;;;;;;;;;;4956831;28;20070;-73
2021/08/27 12:56:33;;;;;;;3.53;1.48;;;;;;;;;;4957189;28;20559;-71
2021/08/27 12:59:13;;;;;;;4.88;1.27;;;;;;;;;;4974812;28;20372;-72
2021/08/27 13:01:39;;;;;;;2.15;1.13;;;;;;;;;;4974507;28;20019;-72
2021/08/27 13:04:05;;;;;;;2.90;1.10;;;;;;;;;;4956853;28;20026;-74
2021/08/27 13:06:48;;;;;;;5.35;1.80;;;;;;;;;;4974804;28;20023;-81
2021/08/27 13:09:17;;;;;;;2.17;1.30;;;;;;;;;;4974086;28;20089;-82
2021/08/27 13:11:47;;;;;;;1.75;1.00;;;;;;;;;;4974332;28;20019;-82
2021/08/27 13:14:24;;;;;;;3.88;1.50;;;;;;;;;;4973919;28;20069;-81
2021/08/27 13:16:58;;;;;;;4.35;1.98;;;;;;;;;;4974211;28;20050;-79
2021/08/27 13:19:25;;;;;;;3.40;1.27;;;;;;;;;;4956604;28;20026;-80
2021/08/27 13:21:51;;;;;;;2.28;0.95;;;;;;;;;;4974118;28;20438;-80
2021/08/27 13:24:18;;;;;;;2.53;1.02;;;;;;;;;;4973660;28;20454;-82
2021/08/27 13:26:53;;;;;;;3.13;1.58;;;;;;;;;;4956592;28;20031;-83
2021/08/27 13:29:19;;;;;;;3.53;1.17;;;;;;;;;;4973662;28;20026;-80
2021/08/27 13:31:45;;;;;;;2.40;1.05;;;;;;;;;;4973896;28;20023;-77
2021/08/27 13:34:11;;;;;;;2.28;1.08;;;;;;;;;;4973498;28;20058;-78
2021/08/27 13:36:37;;;;;;;2.90;1.15;;;;;;;;;;4973917;28;20454;-79
2021/08/27 13:39:03;;;;;;;3.55;1.25;;;;;;;;;;4973388;28;20030;-76
2021/08/27 13:41:29;;;;;;;3.85;1.27;;;;;;;;;;4956559;28;20398;-83
2021/08/27 13:43:55;;;;;;;2.17;0.95;;;;;;;;;;4973704;28;20026;-76
2021/08/27 13:46:21;;;;;;;2.22;0.90;;;;;;;;;;4973424;28;20105;-75
2021/08/27 13:48:47;;;;;;;2.30;1.00;;;;;;;;;;4973579;28;20041;-78
2021/08/27 13:51:13;;;;;;;2.53;1.00;;;;;;;;;;4955943;28;20023;-79
2021/08/27 13:53:39;;;;;;;3.22;1.20;;;;;;;;;;4973305;28;20035;-82
2021/08/27 13:56:05;;;;;;;3.85;1.30;;;;;;;;;;4973238;28;20111;-77
2021/08/27 13:58:32;;;;;;;4.13;1.23;;;;;;;;;;4973778;28;20030;-81
2021/08/27 14:00:58;;;;;;;3.40;1.15;;;;;;;;;;4973703;28;20023;-77
2021/08/27 14:03:24;;;;;;;3.70;1.08;;;;;;;;;;4973035;28;20026;-79
2021/08/27 14:05:50;;;;;;;3.28;1.50;;;;;;;;;;4972772;28;20113;-81
2021/08/27 14:08:16;;;;;;;3.22;1.17;;;;;;;;;;4955606;28;20390;-74
2021/08/27 14:10:42;;;;;;;1.75;1.10;;;;;;;;;;4973123;28;20031;-78
2021/08/27 14:13:09;;;;;;;3.20;1.00;;;;;;;;;;4955489;28;20026;-75
2021/08/27 14:15:35;;;;;;;3.47;1.10;;;;;;;;;;4973071;28;20059;-75
2021/08/27 14:18:02;;;;;;;4.35;1.30;;;;;;;;;;4956093;28;20093;-73
2021/08/27 14:20:28;;;;;;;1.77;0.98;;;;;;;;;;4973291;28;20031;-77
2021/08/27 14:22:54;;;;;;;2.63;1.00;;;;;;;;;;4972899;28;20030;-75
2021/08/27 14:25:20;;;;;;;3.70;1.38;;;;;;;;;;4972652;28;20035;-75
2021/08/27 14:27:46;;;;;;;3.35;1.30;;;;;;;;;;4972820;28;20388;-79
2021/08/27 14:30:14;;;;;;;2.65;1.25;;;;;;;;;;4972652;28;20034;-73
2021/08/27 14:32:42;;;;;;;3.13;1.45;;;;;;;;;;4972661;28;20057;-75
2021/08/27 14:35:09;;;;;;;3.35;1.13;;;;;;;;;;4955153;28;20031;-74
2021/08/27 14:37:37;;;;;;;4.40;1.52;;;;;;;;;;4972766;28;20059;-78
2021/08/27 14:40:05;;;;;;;1.77;0.95;;;;;;;;;;4972538;28;20035;-75
2021/08/27 14:42:31;;;;;;;2.55;1.05;;;;;;;;;;4972880;28;20027;-75
2021/08/27 14:44:57;;;;;;;2.67;1.10;;;;;;;;;;4972924;28;20097;-74
2021/08/27 14:47:23;;;;;;;2.33;0.85;;;;;;;;;;4955045;28;20054;-75